^^
Grace C. Lehan Memorial Weather Station Historical Data
Daily Summary for February 13, 2021 Units:  English    Metric   Both
Daily Weekly Monthly Yearly
  High: Low: Average:
Temperature: 27.7 °F 20.7 °F 23.7 °F
Dew Point: 9.8 °F 5.8 °F 8 °F
Humidity: 57.3% 41.5% 50%
Wind Speed: 4mph 0mph 1mph
Wind Gust: 15mph - -
Wind- - East
Pressure: 30.36 in 30.29 in -
Precipitation: 0.00 in    
 
 
Tabular Data for February 13, 2021
Time Temperature Dew Point Pressure Wind Wind Speed Wind Gust Humidity Rainfall Rate (Hourly) solar
00:04 25.6 °F 9.5 °F 30.33 in NNE 0.1 mph 2 mph 49.8% 0.00 in 0 W/m2
00:09 25.6 °F 9.1 °F 30.33 in NNE 0.1 mph 1 mph 49% 0.00 in 0 W/m2
00:14 25.6 °F 9.1 °F 30.33 in Calm   1 mph 49.1% 0.00 in 0 W/m2
00:19 25.6 °F 9.2 °F 30.33 in NNE 0.1 mph 2 mph 49.1% 0.00 in 0 W/m2
00:24 25.6 °F 9.1 °F 30.33 in Calm   2 mph 49% 0.00 in 0 W/m2
00:29 25.6 °F 9.3 °F 30.32 in Calm   2 mph 49.4% 0.00 in 0 W/m2
00:34 25.6 °F 9.7 °F 30.32 in Calm   2 mph 50.3% 0.00 in 0 W/m2
00:39 25.7 °F 9.2 °F 30.32 in NNE 0.1 mph 1 mph 49% 0.00 in 0 W/m2
00:44 25.7 °F 9.1 °F 30.32 in NNE 0.1 mph 2 mph 48.8% 0.00 in 0 W/m2
00:49 25.7 °F 8.7 °F 30.32 in Calm   2 mph 48% 0.00 in 0 W/m2
00:54 25.7 °F 8.7 °F 30.32 in Calm   2 mph 48% 0.00 in 0 W/m2
00:59 25.6 °F 8.7 °F 30.32 in Calm   2 mph 48% 0.00 in 0 W/m2
01:04 25.6 °F 8.7 °F 30.32 in Calm   2 mph 48.1% 0.00 in 0 W/m2
01:09 25.6 °F 8.8 °F 30.32 in NNE 0.1 mph 1 mph 48.3% 0.00 in 0 W/m2
01:14 25.6 °F 8.7 °F 30.32 in Calm   1 mph 48% 0.00 in 0 W/m2
01:19 25.6 °F 9 °F 30.32 in NNE 0.5 mph 3 mph 48.9% 0.00 in 0 W/m2
01:24 25.6 °F 8.8 °F 30.32 in NNE 0.1 mph 3 mph 48.4% 0.00 in 0 W/m2
01:29 25.6 °F 9.5 °F 30.32 in NNE 0.1 mph 3 mph 49.9% 0.00 in 0 W/m2
01:34 25.6 °F 9.5 °F 30.32 in Calm   3 mph 50% 0.00 in 0 W/m2
01:39 25.6 °F 9.5 °F 30.32 in Calm   1 mph 49.9% 0.00 in 0 W/m2
01:44 25.6 °F 9.2 °F 30.33 in Calm   1 mph 49.3% 0.00 in 0 W/m2
01:49 25.6 °F 9.5 °F 30.33 in NNE 0.5 mph 4 mph 49.9% 0.00 in 0 W/m2
01:54 25.6 °F 9.5 °F 30.33 in NNE 0.1 mph 4 mph 50% 0.00 in 0 W/m2
01:59 25.5 °F 9.5 °F 30.33 in NNE 0.3 mph 4 mph 50% 0.00 in 0 W/m2
02:04 25.5 °F 9.1 °F 30.33 in Calm   4 mph 49.3% 0.00 in 0 W/m2
02:09 25.5 °F 9.1 °F 30.32 in NNE 0.5 mph 3 mph 49.2% 0.00 in 0 W/m2
02:14 25.4 °F 9.3 °F 30.32 in NNE 0.2 mph 3 mph 49.8% 0.00 in 0 W/m2
02:19 25.4 °F 9.8 °F 30.32 in Calm   3 mph 51% 0.00 in 0 W/m2
02:24 25.3 °F 9.7 °F 30.32 in NNE 0.2 mph 3 mph 51% 0.00 in 0 W/m2
02:29 25.2 °F 9.1 °F 30.32 in NNE 0.8 mph 3 mph 49.9% 0.00 in 0 W/m2
02:34 25.2 °F 8.9 °F 30.32 in NE 0.4 mph 3 mph 49.5% 0.00 in 0 W/m2
02:39 25.1 °F 9.3 °F 30.32 in Calm   3 mph 50.4% 0.00 in 0 W/m2
02:44 25.1 °F 9.4 °F 30.31 in NE 0.3 mph 3 mph 50.6% 0.00 in 0 W/m2
02:49 25.1 °F 9.7 °F 30.30 in NE 0.2 mph 3 mph 51.5% 0.00 in 0 W/m2
02:54 25 °F 9.6 °F 30.30 in Calm   3 mph 51.3% 0.00 in 0 W/m2
02:59 25 °F 9.8 °F 30.30 in Calm   3 mph 52% 0.00 in 0 W/m2
03:04 24.9 °F 9.5 °F 30.29 in NE 0.1 mph 3 mph 51.2% 0.00 in 0 W/m2
03:09 24.8 °F 9.1 °F 30.29 in Calm   2 mph 50.6% 0.00 in 0 W/m2
03:14 24.8 °F 9 °F 30.30 in NE 0.3 mph 2 mph 50.5% 0.00 in 0 W/m2
03:19 24.8 °F 8.9 °F 30.30 in NE 0.1 mph 2 mph 50.3% 0.00 in 0 W/m2
03:24 24.7 °F 8.9 °F 30.31 in NE 0.1 mph 2 mph 50.5% 0.00 in 0 W/m2
03:29 24.7 °F 8.8 °F 30.31 in Calm   2 mph 50.4% 0.00 in 0 W/m2
03:34 24.6 °F 8.7 °F 30.30 in Calm   2 mph 50.3% 0.00 in 0 W/m2
03:39 24.5 °F 9.3 °F 30.31 in Calm     51.7% 0.00 in 0 W/m2
03:44 24.5 °F 9.4 °F 30.31 in Calm     52% 0.00 in 0 W/m2
03:49 24.5 °F 9 °F 30.31 in Calm     51% 0.00 in 0 W/m2
03:54 24.5 °F 9 °F 30.30 in Calm     51% 0.00 in 0 W/m2
03:59 24.5 °F 9 °F 30.31 in NE 0.1 mph 2 mph 51% 0.00 in 0 W/m2
04:04 24.5 °F 8.8 °F 30.30 in Calm   2 mph 50.5% 0.00 in 0 W/m2
04:09 24.4 °F 8.7 °F 30.32 in Calm     50.4% 0.00 in 0 W/m2
04:14 24.4 °F 8.7 °F 30.32 in Calm     50.7% 0.00 in 0 W/m2
04:19 24.3 °F 8.7 °F 30.32 in Calm     50.6% 0.00 in 0 W/m2
04:24 24.3 °F 9.1 °F 30.32 in Calm     51.8% 0.00 in 0 W/m2
04:29 24.3 °F 9.1 °F 30.33 in NE 0.2 mph 2 mph 51.8% 0.00 in 0 W/m2
04:34 24.2 °F 8.9 °F 30.33 in NE 0.3 mph 3 mph 51.5% 0.00 in 0 W/m2
04:39 24.1 °F 8.9 °F 30.32 in NE 0.2 mph 3 mph 51.8% 0.00 in 0 W/m2
04:44 24 °F 9.3 °F 30.32 in NE 0.2 mph 3 mph 52.8% 0.00 in 0 W/m2
04:49 24 °F 9.1 °F 30.32 in Calm   3 mph 52.5% 0.00 in 0 W/m2
04:54 23.8 °F 9.1 °F 30.32 in Calm   3 mph 52.7% 0.00 in 0 W/m2
04:59 23.8 °F 9.1 °F 30.32 in Calm   3 mph 53% 0.00 in 0 W/m2
05:04 23.6 °F 9 °F 30.32 in NE 0.2 mph 3 mph 53% 0.00 in 0 W/m2
05:09 23.5 °F 8.7 °F 30.32 in NE 0.1 mph 2 mph 52.5% 0.00 in 0 W/m2
05:14 23.4 °F 8.1 °F 30.33 in NE 0.2 mph 2 mph 51.5% 0.00 in 0 W/m2
05:19 23.2 °F 8.2 °F 30.32 in NE 0.5 mph 4 mph 51.8% 0.00 in 0 W/m2
05:24 23.1 °F 8.1 °F 30.33 in Calm   4 mph 52% 0.00 in 0 W/m2
05:29 23 °F 8 °F 30.33 in NE 0.6 mph 4 mph 52% 0.00 in 0 W/m2
05:34 22.9 °F 8.3 °F 30.33 in NE 0.3 mph 4 mph 52.8% 0.00 in 0 W/m2
05:39 22.8 °F 8.3 °F 30.33 in NE 1.4 mph 4 mph 53% 0.00 in 0 W/m2
05:44 22.7 °F 7.9 °F 30.33 in NNE 1.7 mph 7 mph 52.4% 0.00 in 0 W/m2
05:49 22.6 °F 7.7 °F 30.33 in NNE 0.3 mph 7 mph 52% 0.00 in 0 W/m2
05:54 22.5 °F 7.7 °F 30.33 in NNE 0.1 mph 7 mph 52.2% 0.00 in 0 W/m2
05:59 22.4 °F 7.7 °F 30.32 in NNE 0.1 mph 7 mph 52.4% 0.00 in 0 W/m2
06:04 22.4 °F 7.8 °F 30.33 in NNE 0.4 mph 7 mph 52.9% 0.00 in 0 W/m2
06:09 22.3 °F 7.8 °F 30.33 in NNE 0.4 mph 3 mph 53% 0.00 in 0 W/m2
06:14 22.2 °F 7.7 °F 30.33 in NNE 0.2 mph 3 mph 53% 0.00 in 0 W/m2
06:19 22.1 °F 7.9 °F 30.33 in NNE 0.9 mph 4 mph 53.6% 0.00 in 0 W/m2
06:24 22 °F 7.9 °F 30.33 in NNE 0.2 mph 5 mph 54.1% 0.00 in 0 W/m2
06:29 21.8 °F 7.9 °F 30.33 in NNW 1.5 mph 6 mph 54.4% 0.00 in 0 W/m2
06:34 21.7 °F 7.6 °F 30.33 in North 1.2 mph 6 mph 54% 0.00 in 0 W/m2
06:39 21.6 °F 7.8 °F 30.33 in North 0.3 mph 4 mph 54.7% 0.00 in 0 W/m2
06:44 21.5 °F 7.8 °F 30.34 in North 0.4 mph 6 mph 55% 0.00 in 0 W/m2
06:49 21.3 °F 7.7 °F 30.34 in North 0.3 mph 6 mph 55% 0.00 in 0 W/m2
06:54 21.2 °F 7.6 °F 30.34 in NNE 0.9 mph 6 mph 55% 0.00 in 5 W/m2
06:59 21.1 °F 7.7 °F 30.34 in NNE 0.6 mph 6 mph 55.6% 0.00 in 9 W/m2
07:04 21 °F 7.7 °F 30.34 in NNE 0.1 mph 6 mph 56% 0.00 in 12 W/m2
07:09 20.9 °F 7.8 °F 30.34 in Calm   2 mph 56.4% 0.00 in 18 W/m2
07:14 20.8 °F 8 °F 30.34 in NNE 0.4 mph 2 mph 57% 0.00 in 19 W/m2
07:19 20.8 °F 8.1 °F 30.34 in NNE 0.4 mph 3 mph 57.3% 0.00 in 23 W/m2
07:24 20.8 °F 8 °F 30.34 in North 2.7 mph 6 mph 57% 0.00 in 25 W/m2
07:29 20.8 °F 7.6 °F 30.35 in NNE 2.3 mph 7 mph 56.2% 0.00 in 25 W/m2
07:34 20.7 °F 7.5 °F 30.35 in NNE 1.7 mph 7 mph 56% 0.00 in 30 W/m2
07:39 20.7 °F 7.5 °F 30.35 in North 0.2 mph 6 mph 56% 0.00 in 40 W/m2
07:44 20.8 °F 7.4 °F 30.35 in North 2.2 mph 8 mph 55.6% 0.00 in 40 W/m2
07:49 20.8 °F 7.2 °F 30.35 in NNW 1.7 mph 8 mph 55% 0.00 in 56 W/m2
07:54 20.8 °F 7 °F 30.35 in North 0.7 mph 8 mph 54.4% 0.00 in 62 W/m2
07:59 20.9 °F 6.8 °F 30.36 in North 1.5 mph 8 mph 54% 0.00 in 69 W/m2
08:04 21 °F 7.4 °F 30.35 in Calm     55% 0.00 in 77 W/m2
08:09 21 °F 7.1 °F 30.35 in NNW 2.5 mph 9 mph 54.4% 0.00 in 86 W/m2
08:14 21.1 °F 6.8 °F 30.35 in North 2.2 mph 9 mph 53.3% 0.00 in 88 W/m2
08:19 21 °F 6.6 °F 30.35 in NNE 1.8 mph 9 mph 53% 0.00 in 95 W/m2
08:24 21 °F 6.6 °F 30.35 in North 2.4 mph 9 mph 53% 0.00 in 97 W/m2
08:29 21 °F 6.4 °F 30.35 in NNE 1.6 mph 9 mph 52.7% 0.00 in 100 W/m2
08:34 21 °F 6.1 °F 30.35 in North 1.9 mph 9 mph 52% 0.00 in 114 W/m2
08:39 20.9 °F 6 °F 30.35 in NE 3.4 mph 10 mph 51.8% 0.00 in 121 W/m2
08:44 20.7 °F 5.8 °F 30.35 in North 2.7 mph 10 mph 51.7% 0.00 in 128 W/m2
08:49 20.7 °F 5.9 °F 30.35 in North 2.1 mph 10 mph 52% 0.00 in 135 W/m2
08:54 20.8 °F 6.2 °F 30.35 in North 1.6 mph 10 mph 52.5% 0.00 in 149 W/m2
08:59 20.9 °F 6.4 °F 30.35 in NNW 3.1 mph 12 mph 52.9% 0.00 in 165 W/m2
09:04 21.2 °F 6.6 °F 30.35 in NNE 2 mph 12 mph 52.8% 0.00 in 174 W/m2
09:09 21.4 °F 6.8 °F 30.35 in NNW 3.4 mph 10 mph 52.7% 0.00 in 171 W/m2
09:14 21.7 °F 7 °F 30.35 in North 1.5 mph 10 mph 52.7% 0.00 in 186 W/m2
09:19 21.9 °F 7.2 °F 30.35 in NNW 2.9 mph 10 mph 52.4% 0.00 in 190 W/m2
09:24 22.1 °F 6.9 °F 30.35 in NE 2 mph 10 mph 51.2% 0.00 in 192 W/m2
09:29 22.2 °F 6.8 °F 30.35 in North 1.1 mph 10 mph 50.9% 0.00 in 200 W/m2
09:34 22.3 °F 7.4 °F 30.34 in NNW 0.8 mph 10 mph 52% 0.00 in 214 W/m2
09:39 22.4 °F 6.9 °F 30.35 in NE 1.9 mph 6 mph 50.7% 0.00 in 220 W/m2
09:44 22.4 °F 6.8 °F 30.35 in NNE 2.7 mph 7 mph 50.6% 0.00 in 223 W/m2
09:49 22.5 °F 6.5 °F 30.34 in NE 1.8 mph 7 mph 49.6% 0.00 in 237 W/m2
09:54 22.4 °F 6.5 °F 30.34 in NNW 3.3 mph 10 mph 49.9% 0.00 in 237 W/m2
09:59 22.4 °F 6.8 °F 30.34 in North 2 mph 10 mph 50.3% 0.00 in 237 W/m2
10:04 22.6 °F 6.9 °F 30.35 in North 2.1 mph 10 mph 50.3% 0.00 in 246 W/m2
10:09 22.7 °F 7.3 °F 30.35 in NNW 1 mph 7 mph 51% 0.00 in 230 W/m2
10:14 23 °F 7.6 °F 30.35 in North 0.2 mph 7 mph 51% 0.00 in 236 W/m2
10:19 23.1 °F 7.1 °F 30.36 in NNE 1 mph 7 mph 49.7% 0.00 in 241 W/m2
10:24 23.2 °F 7.1 °F 30.36 in North 0.7 mph 7 mph 49.5% 0.00 in 244 W/m2
10:29 23.3 °F 7.2 °F 30.36 in NE 1.8 mph 7 mph 49.4% 0.00 in 230 W/m2
10:34 23.4 °F 7.3 °F 30.36 in NE 2.4 mph 7 mph 49.5% 0.00 in 257 W/m2
10:39 23.4 °F 6.7 °F 30.35 in NE 2.1 mph 5 mph 48% 0.00 in 257 W/m2
10:44 23.2 °F 6.4 °F 30.35 in NE 2.4 mph 6 mph 47.8% 0.00 in 237 W/m2
10:49 23.1 °F 6.3 °F 30.35 in NE 1.8 mph 10 mph 48% 0.00 in 246 W/m2
10:54 23.1 °F 6.7 °F 30.34 in NNE 1.8 mph 10 mph 48.9% 0.00 in 329 W/m2
10:59 23.4 °F 7.5 °F 30.34 in NNW 0.8 mph 10 mph 49.8% 0.00 in 366 W/m2
11:04 24 °F 7.6 °F 30.34 in NE 2.9 mph 10 mph 48.9% 0.00 in 357 W/m2
11:09 24.4 °F 7.2 °F 30.34 in NNE 2.9 mph 15 mph 47.3% 0.00 in 404 W/m2
11:14 24.9 °F 7.9 °F 30.33 in NE 3.4 mph 15 mph 47.7% 0.00 in 399 W/m2
11:19 25.4 °F 7.3 °F 30.33 in NE 2.1 mph 15 mph 45.7% 0.00 in 338 W/m2
11:24 25.6 °F 8.1 °F 30.33 in NNE 2.4 mph 15 mph 46.7% 0.00 in 348 W/m2
11:29 25.9 °F 7.4 °F 30.33 in NE 4 mph 15 mph 44.7% 0.00 in 341 W/m2
11:34 25.9 °F 6.9 °F 30.33 in NE 2.6 mph 15 mph 43.7% 0.00 in 299 W/m2
11:39 25.8 °F 6.3 °F 30.32 in NE 4 mph 12 mph 42.9% 0.00 in 330 W/m2
11:44 25.7 °F 6.2 °F 30.32 in NE 2.1 mph 12 mph 42.8% 0.00 in 322 W/m2
11:49 25.8 °F 6.4 °F 30.33 in NE 2.3 mph 12 mph 43% 0.00 in 318 W/m2
11:54 25.7 °F 6.1 °F 30.32 in NE 2.8 mph 12 mph 42.6% 0.00 in 279 W/m2
11:59 25.9 °F 6.4 °F 30.32 in NE 3.4 mph 12 mph 42.9% 0.00 in 262 W/m2
12:04 25.8 °F 6.4 °F 30.32 in ENE 1 mph 1 mph 43% 0.00 in 265 W/m2
12:09 25.8 °F 6.3 °F 30.32 in ENE 1.6 mph 6 mph 42.8% 0.00 in 274 W/m2
12:14 26 °F 6.6 °F 30.32 in NE 2.2 mph 8 mph 43.1% 0.00 in 279 W/m2
12:19 26.2 °F 6.2 °F 30.31 in NE 2.7 mph 8 mph 42% 0.00 in 283 W/m2
12:24 26.3 °F 6.3 °F 30.31 in NNE 2.3 mph 8 mph 42% 0.00 in 308 W/m2
12:29 26.3 °F 6.2 °F 30.31 in NNE 2.8 mph 8 mph 41.7% 0.00 in 315 W/m2
12:34 26.5 °F 7 °F 30.31 in North 1.6 mph 8 mph 42.8% 0.00 in 315 W/m2
12:39 26.9 °F 7.5 °F 30.31 in North 1.5 mph 7 mph 43.2% 0.00 in 287 W/m2
12:44 27.1 °F 7.7 °F 30.31 in NNW 0.6 mph 7 mph 43.2% 0.00 in 260 W/m2
12:49 27.4 °F 7.9 °F 30.31 in NNE 1.4 mph 7 mph 43% 0.00 in 236 W/m2
12:53 27.7 °F 7.3 °F 30.30 in NE 1 mph 7 mph 41.5% 0.00 in 236 W/m2
Hartford County Weather
Compliments of Weather Underground - 2 mb